Time;durP1;ratioP1;P1;durP2;ratioP2;P2;SDS_P1;SDS_P2;PMS_P1;PMS_P2;Temp;Humidity;BMP_temperature;BMP_pressure;BME280_temperature;BME280_humidity;BME280_pressure;Samples;Min_cycle;Max_cycle;Signal;HPM_P1;HPM_P2
2022/05/11 00:00:06;;;;;;;;;;;;;;;5.09;46.09;100785.97;1655531;82;20239;-59
2022/05/11 00:03:12;;;;;;;;;;;;;;;5.10;46.21;100787.69;1654645;82;20268;-61
2022/05/11 00:06:18;;;;;;;;;;;;;;;5.12;46.31;100787.06;1653885;84;20198;-59
2022/05/11 00:09:24;;;;;;;;;;;;;;;5.10;46.38;100787.20;1656256;83;20211;-60
2022/05/11 00:12:28;;;;;;;;;;;;;;;5.09;46.49;100781.39;1654178;84;20569;-60
2022/05/11 00:15:34;;;;;;;;;;;;;;;5.08;46.60;100779.67;1652300;83;20244;-61
2022/05/11 00:18:40;;;;;;;;;;;;;;;5.07;46.70;100797.45;1656243;83;20215;-61
2022/05/11 00:21:44;;;;;;;;;;;;;;;5.04;46.81;100782.30;1660810;84;20570;-61
2022/05/11 00:24:48;;;;;;;;;;;;;;;5.01;46.87;100777.11;1662314;81;20215;-60
2022/05/11 00:27:54;;;;;;;;;;;;;;;4.97;46.93;100775.67;1662975;82;20243;-60
2022/05/11 00:30:59;;;;;;;;;;;;;;;4.94;47.02;100780.48;1651746;82;20230;-60
2022/05/11 00:34:04;;;;;;;;;;;;;;;4.90;47.08;100778.52;1709154;82;20288;-60
2022/05/11 00:37:10;;;;;;;;;;;;;;;4.87;47.18;100776.59;1700768;82;20556;-60
2022/05/11 00:40:15;;;;;;;;;;;;;;;4.82;47.26;100778.83;1706081;82;20203;-60
2022/05/11 00:43:21;;;;;;;;;;;;;;;4.78;47.32;100780.05;1709299;82;20540;-61
2022/05/11 00:46:31;;;;;;;;;;;;;;;4.74;47.45;100771.31;1703922;83;20216;-62
2022/05/11 00:49:48;;;;;;;;;;;;;;;4.72;47.54;100775.16;1706126;82;20195;-61
2022/05/11 00:52:57;;;;;;;;;;;;;;;4.71;47.67;100777.52;1705195;81;20243;-59
2022/05/11 00:56:02;;;;;;;;;;;;;;;4.73;47.82;100770.09;1704312;83;20548;-59
2022/05/11 00:59:10;;;;;;;;;;;;;;;4.77;47.91;100764.79;1702279;82;20200;-59
2022/05/11 01:02:16;;;;;;;;;;;;;;;4.82;48.01;100763.91;1708694;82;20263;-61
2022/05/11 01:05:22;;;;;;;;;;;;;;;4.86;48.05;100768.06;1682943;83;20556;-60
2022/05/11 01:08:28;;;;;;;;;;;;;;;4.89;48.07;100766.45;1711565;82;20199;-61
2022/05/11 01:11:34;;;;;;;;;;;;;;;4.89;48.08;100760.53;1704257;83;20223;-59
2022/05/11 01:14:41;;;;;;;;;;;;;;;4.91;48.14;100759.92;1693176;83;20689;-60
2022/05/11 01:17:47;;;;;;;;;;;;;;;4.94;48.18;100755.59;1702887;82;20582;-61
2022/05/11 01:20:52;;;;;;;;;;;;;;;4.96;48.23;100756.81;1707306;82;20205;-61
2022/05/11 01:24:04;;;;;;;;;;;;;;;4.97;48.26;100747.67;1700823;82;20227;-59
2022/05/11 01:27:36;;;;;;;;;;;;;;;4.99;48.30;100743.85;1700505;83;20267;-60
2022/05/11 01:30:41;;;;;;;;;;;;;;;5.03;48.30;100739.00;1708569;81;20258;-60
2022/05/11 01:33:48;;;;;;;;;;;;;;;5.05;48.34;100737.02;1708019;82;20200;-62
2022/05/11 01:36:52;;;;;;;;;;;;;;;5.08;48.34;100740.82;1701735;83;20196;-59
2022/05/11 01:39:58;;;;;;;;;;;;;;;5.10;48.35;100733.42;1708999;82;20575;-61
2022/05/11 01:43:05;;;;;;;;;;;;;;;5.13;48.36;100734.02;1709713;82;20354;-61
2022/05/11 01:46:10;;;;;;;;;;;;;;;5.17;48.35;100738.17;1700978;81;20227;-61
2022/05/11 01:49:14;;;;;;;;;;;;;;;5.20;48.37;100737.06;1704599;82;21120;-61
2022/05/11 01:52:20;;;;;;;;;;;;;;;5.22;48.39;100728.27;1707212;82;20594;-60
2022/05/11 01:55:24;;;;;;;;;;;;;;;5.24;48.40;100724.94;1704679;82;20259;-60
2022/05/11 01:58:30;;;;;;;;;;;;;;;5.25;48.41;100728.03;1706777;81;20243;-60
2022/05/11 02:01:36;;;;;;;;;;;;;;;5.26;48.42;100728.39;1695137;81;20239;-61
2022/05/11 02:08:07;;;;;;;;;;;;;;;5.30;48.44;100723.91;1699295;82;20247;-60
2022/05/11 02:11:13;;;;;;;;;;;;;;;5.32;48.44;100726.48;1709184;82;20227;-60
2022/05/11 02:14:17;;;;;;;;;;;;;;;5.33;48.45;100724.99;1699627;82;20239;-59
2022/05/11 02:17:23;;;;;;;;;;;;;;;5.36;48.48;100722.52;1706797;82;20508;-60
2022/05/11 02:20:29;;;;;;;;;;;;;;;5.38;48.49;100723.23;1701696;82;20296;-60
2022/05/11 02:23:34;;;;;;;;;;;;;;;5.38;48.51;100719.16;1696900;82;20195;-60
2022/05/11 02:26:42;;;;;;;;;;;;;;;5.41;48.54;100717.52;1705667;82;20582;-60
2022/05/11 02:29:48;;;;;;;;;;;;;;;5.43;48.54;100714.19;1685003;83;20231;-61
2022/05/11 02:32:53;;;;;;;;;;;;;;;5.45;48.56;100706.78;1706784;82;20532;-60
2022/05/11 02:35:58;;;;;;;;;;;;;;;5.48;48.57;100710.58;1707555;82;20212;-61
2022/05/11 02:39:04;;;;;;;;;;;;;;;5.51;48.58;100713.02;1702521;82;20254;-61
2022/05/11 02:42:10;;;;;;;;;;;;;;;5.54;48.58;100712.73;1696929;82;20541;-61
2022/05/11 02:45:16;;;;;;;;;;;;;;;5.59;48.58;100722.70;1683037;83;20204;-60
2022/05/11 02:48:24;;;;;;;;;;;;;;;5.63;48.61;100712.78;1700472;81;20563;-60
2022/05/11 02:51:32;;;;;;;;;;;;;;;5.67;48.59;100719.67;1704786;83;20248;-61
2022/05/11 02:54:37;;;;;;;;;;;;;;;5.70;48.63;100711.25;1700647;83;20216;-60
2022/05/11 02:57:42;;;;;;;;;;;;;;;5.77;48.65;100708.85;1706445;82;20212;-60
2022/05/11 03:00:48;;;;;;;;;;;;;;;5.83;48.67;100713.77;1699398;83;20223;-60
2022/05/11 03:03:53;;;;;;;;;;;;;;;5.91;48.67;100708.50;1704279;82;20196;-60
2022/05/11 03:06:58;;;;;;;;;;;;;;;5.98;48.67;100713.23;1708895;82;20211;-61
2022/05/11 03:10:02;;;;;;;;;;;;;;;6.06;48.67;100713.89;1709331;82;20208;-60
2022/05/11 03:13:07;;;;;;;;;;;;;;;6.16;48.69;100710.70;1698788;81;20231;-60
2022/05/11 03:16:12;;;;;;;;;;;;;;;6.30;48.66;100715.73;1621568;83;20226;-60
2022/05/11 03:19:18;;;;;;;;;;;;;;;6.43;48.68;100722.27;1705701;82;20299;-60
2022/05/11 03:22:23;;;;;;;;;;;;;;;6.56;48.67;100721.01;1700251;82;20274;-59
2022/05/11 03:25:28;;;;;;;;;;;;;;;6.70;48.68;100726.02;1690572;82;20315;-60
2022/05/11 03:28:33;;;;;;;;;;;;;;;6.85;48.68;100726.45;1672898;83;20245;-58
2022/05/11 03:31:40;;;;;;;;;;;;;;;6.98;48.68;100721.06;1662075;83;20609;-59
2022/05/11 03:34:48;;;;;;;;;;;;;;;7.10;48.67;100719.05;1674770;84;20266;-59
2022/05/11 03:37:57;;;;;;;;;;;;;;;7.24;48.65;100726.27;1671381;84;20254;-59
2022/05/11 03:41:01;;;;;;;;;;;;;;;7.36;48.62;100725.08;1676143;83;20297;-59
2022/05/11 03:44:06;;;;;;;;;;;;;;;7.49;48.61;100720.17;1678868;83;20226;-59
2022/05/11 03:47:11;;;;;;;;;;;;;;;7.63;48.58;100722.42;1676198;84;20269;-57
2022/05/11 03:50:16;;;;;;;;;;;;;;;7.78;48.55;100706.94;1659756;84;20310;-60
2022/05/11 03:53:23;;;;;;;;;;;;;;;7.92;48.51;100716.84;1650304;84;20217;-59
2022/05/11 03:56:28;;;;;;;;;;;;;;;8.08;48.46;100715.70;1621297;84;20514;-60
2022/05/11 03:59:34;;;;;;;;;;;;;;;8.23;48.42;100726.98;1623876;85;20292;-60
2022/05/11 04:02:40;;;;;;;;;;;;;;;8.37;48.36;100726.47;1623595;86;20288;-59
2022/05/11 04:05:47;;;;;;;;;;;;;;;8.50;48.29;100724.23;1622871;84;20201;-60
2022/05/11 04:08:51;;;;;;;;;;;;;;;8.63;48.27;100721.95;1622107;85;20217;-60
2022/05/11 04:11:55;;;;;;;;;;;;;;;8.74;48.21;100726.69;1620676;86;20328;-60
2022/05/11 04:15:01;;;;;;;;;;;;;;;8.84;48.14;100731.57;1623373;85;20262;-61
2022/05/11 04:18:08;;;;;;;;;;;;;;;8.94;48.05;100736.42;1676665;82;20232;-60
2022/05/11 04:21:12;;;;;;;;;;;;;;;9.03;48.02;100729.17;1679819;84;20795;-60
2022/05/11 04:24:19;;;;;;;;;;;;;;;9.16;47.99;100735.09;1663235;84;20256;-59
2022/05/11 04:27:24;;;;;;;;;;;;;;;9.27;47.93;100738.94;1671368;82;20274;-59
2022/05/11 04:30:31;;;;;;;;;;;;;;;9.36;47.84;100736.61;1646914;84;20266;-60
2022/05/11 04:33:36;;;;;;;;;;;;;;;9.46;47.78;100735.14;1647935;84;21031;-59
2022/05/11 04:36:40;;;;;;;;;;;;;;;9.54;47.72;100736.56;1650399;84;20199;-58
2022/05/11 04:39:44;;;;;;;;;;;;;;;9.64;47.72;100734.59;1698504;82;20551;-59
2022/05/11 04:42:50;;;;;;;;;;;;;;;9.79;47.69;100730.22;1690850;83;20576;-61
2022/05/11 04:45:58;;;;;;;;;;;;;;;9.94;47.65;100735.45;1697986;83;20535;-61
2022/05/11 04:49:27;;;;;;;;;;;;;;;10.11;47.59;100734.03;1684243;83;20185;-60
2022/05/11 04:52:32;;;;;;;;;;;;;;;10.25;47.51;100736.63;1700322;83;20200;-60
2022/05/11 04:55:37;;;;;;;;;;;;;;;10.40;47.44;100728.16;1705203;80;20227;-61
2022/05/11 04:58:44;;;;;;;;;;;;;;;10.58;47.42;100730.23;1706733;81;20247;-61
2022/05/11 05:01:51;;;;;;;;;;;;;;;10.74;47.31;100728.91;1693811;81;20267;-59
2022/05/11 05:04:56;;;;;;;;;;;;;;;10.89;47.25;100735.45;1692316;82;20227;-61
2022/05/11 05:08:09;;;;;;;;;;;;;;;11.04;47.20;100725.52;1688633;82;20305;-61
2022/05/11 05:11:37;;;;;;;;;;;;;;;11.18;47.11;100728.11;1683865;83;20255;-59
2022/05/11 05:14:45;;;;;;;;;;;;;;;11.27;46.99;100729.30;1684266;82;20283;-59
2022/05/11 05:17:50;;;;;;;;;;;;;;;11.32;46.89;100727.41;1694462;82;20276;-59
2022/05/11 05:21:00;;;;;;;;;;;;;;;11.43;46.86;100737.48;1661502;83;20270;-60
2022/05/11 05:24:03;;;;;;;;;;;;;;;11.53;46.76;100735.94;1642824;85;20372;-61
2022/05/11 05:27:11;;;;;;;;;;;;;;;11.65;46.71;100736.81;1639990;83;20224;-59
2022/05/11 05:33:41;;;;;;;;;;;;;;;11.82;46.58;100733.02;1693799;82;20242;-62
2022/05/11 05:36:46;;;;;;;;;;;;;;;11.98;46.56;100741.72;1677725;84;20870;-61
2022/05/11 05:39:53;;;;;;;;;;;;;;;12.13;46.42;100735.82;1667459;83;20209;-61
2022/05/11 05:42:59;;;;;;;;;;;;;;;12.25;46.38;100731.67;1707275;82;20286;-61
2022/05/11 05:46:05;;;;;;;;;;;;;;;12.40;46.29;100738.11;1711233;82;20234;-61
2022/05/11 05:49:12;;;;;;;;;;;;;;;12.55;46.25;100734.95;1700287;82;20619;-61
2022/05/11 05:52:17;;;;;;;;;;;;;;;12.77;46.21;100732.77;1658624;83;20229;-60
2022/05/11 05:55:21;;;;;;;;;;;;;;;12.98;46.11;100731.59;1657790;83;20270;-60
2022/05/11 05:58:25;;;;;;;;;;;;;;;13.21;45.98;100730.23;1681988;83;20271;-61
2022/05/11 06:01:29;;;;;;;;;;;;;;;13.41;45.84;100724.03;1665888;82;20225;-59
2022/05/11 06:04:35;;;;;;;;;;;;;;;13.63;45.72;100736.56;1652705;82;20215;-60
2022/05/11 06:07:41;;;;;;;;;;;;;;;13.79;45.59;100721.27;1694628;81;20219;-61
2022/05/11 06:10:46;;;;;;;;;;;;;;;13.95;45.46;100723.84;1693420;82;20216;-61
2022/05/11 06:13:51;;;;;;;;;;;;;;;14.15;45.39;100730.48;1681851;83;20208;-60
2022/05/11 06:16:56;;;;;;;;;;;;;;;14.30;45.21;100731.38;1695126;80;20257;-62
2022/05/11 06:20:08;;;;;;;;;;;;;;;14.36;44.96;100718.21;1689042;83;20235;-60
2022/05/11 06:23:16;;;;;;;;;;;;;;;14.45;44.75;100733.58;1702939;81;20252;-62
2022/05/11 06:26:21;;;;;;;;;;;;;;;14.51;44.70;100714.89;1699336;82;20260;-60
2022/05/11 06:29:29;;;;;;;;;;;;;;;14.69;44.61;100715.34;1695576;80;20271;-61
2022/05/11 06:32:36;;;;;;;;;;;;;;;14.89;44.53;100720.53;1700746;82;20211;-60
2022/05/11 06:35:42;;;;;;;;;;;;;;;15.07;44.31;100724.23;1705480;81;20226;-61
2022/05/11 06:38:49;;;;;;;;;;;;;;;15.19;44.10;100726.27;1709694;82;20216;-61
2022/05/11 06:41:59;;;;;;;;;;;;;;;15.28;43.90;100712.69;1705753;82;20674;-62
2022/05/11 06:45:09;;;;;;;;;;;;;;;15.43;43.76;100710.72;1685412;82;20228;-62
2022/05/11 06:48:14;;;;;;;;;;;;;;;15.55;43.60;100699.48;1696980;82;20212;-61
2022/05/11 06:51:19;;;;;;;;;;;;;;;15.71;43.45;100700.56;1704530;82;20208;-61
2022/05/11 07:01:13;;;;;;;;;;;;;;;15.95;42.78;100706.97;1643482;84;20591;-59
2022/05/11 07:04:22;;;;;;;;;;;;;;;16.00;42.53;100700.32;1660653;83;20562;-60
2022/05/11 07:07:27;;;;;;;;;;;;;;;16.02;42.30;100700.98;1662271;83;20568;-60
2022/05/11 07:10:33;;;;;;;;;;;;;;;15.98;42.05;100696.90;1653825;83;20218;-61
2022/05/11 07:13:38;;;;;;;;;;;;;;;15.99;41.91;100704.15;1660611;83;20214;-59
2022/05/11 07:16:43;;;;;;;;;;;;;;;16.02;41.75;100691.83;1651424;83;20270;-60
2022/05/11 07:19:51;;;;;;;;;;;;;;;16.15;41.66;100687.77;1639161;82;20225;-62
2022/05/11 07:23:00;;;;;;;;;;;;;;;16.25;41.41;100679.41;1648169;83;20264;-61
2022/05/11 07:26:04;;;;;;;;;;;;;;;16.28;41.21;100685.08;1684964;82;20517;-61
2022/05/11 07:29:10;;;;;;;;;;;;;;;16.35;41.08;100673.52;1649558;82;20503;-60
2022/05/11 07:32:15;;;;;;;;;;;;;;;16.36;40.83;100673.30;1620795;85;20559;-61
2022/05/11 07:35:22;;;;;;;;;;;;;;;16.40;40.75;100682.91;1622294;85;20564;-60
2022/05/11 07:38:27;;;;;;;;;;;;;;;16.50;40.59;100676.16;1627380;83;20213;-59
2022/05/11 07:41:33;;;;;;;;;;;;;;;16.52;40.31;100679.58;1642524;83;20523;-60
2022/05/11 07:44:37;;;;;;;;;;;;;;;16.41;40.07;100681.83;1655261;83;20625;-59
2022/05/11 07:47:42;;;;;;;;;;;;;;;16.35;39.97;100681.80;1654649;83;20223;-59
2022/05/11 07:50:48;;;;;;;;;;;;;;;16.31;39.84;100666.19;1709004;82;20575;-61
2022/05/11 07:53:54;;;;;;;;;;;;;;;16.38;39.77;100664.28;1705843;82;20220;-61
2022/05/11 08:00:22;;;;;;;;;;;;;;;16.55;39.44;100670.34;1707788;82;20215;-56
2022/05/11 08:03:27;;;;;;;;;;;;;;;16.51;39.21;100675.95;1708339;81;20215;-58
2022/05/11 08:06:35;;;;;;;;;;;;;;;16.44;38.98;100657.96;1704143;83;20311;-61
2022/05/11 08:09:46;;;;;;;;;;;;;;;16.49;38.94;100652.36;1683763;82;20259;-60
2022/05/11 08:12:52;;;;;;;;;;;;;;;16.60;38.75;100651.75;1699639;82;20635;-61
2022/05/11 08:16:00;;;;;;;;;;;;;;;16.63;38.61;100647.19;1702072;83;20263;-60
2022/05/11 08:19:08;;;;;;;;;;;;;;;16.75;38.52;100636.69;1700921;81;20251;-61
2022/05/11 08:22:12;;;;;;;;;;;;;;;16.78;38.40;100655.62;1694617;83;20267;-62
2022/05/11 08:25:19;;;;;;;;;;;;;;;16.88;38.31;100633.95;1692687;79;20268;-61
2022/05/11 08:28:27;;;;;;;;;;;;;;;17.04;38.15;100635.45;1688869;81;20227;-61
2022/05/11 08:34:54;;;;;;;;;;;;;;;17.09;37.71;100624.62;1676814;84;20230;-62
2022/05/11 08:37:59;;;;;;;;;;;;;;;17.09;37.57;100631.02;1674003;84;20230;-62
2022/05/11 08:41:37;;;;;;;;;;;;;;;17.22;37.50;100626.02;1679051;84;20245;-60
2022/05/11 08:44:45;;;;;;;;;;;;;;;17.27;37.36;100642.80;1704427;81;20638;-59
2022/05/11 08:47:53;;;;;;;;;;;;;;;17.30;37.19;100618.88;1704701;82;20556;-60
2022/05/11 08:50:57;;;;;;;;;;;;;;;17.28;37.09;100619.06;1700917;83;20216;-61
2022/05/11 08:54:04;;;;;;;;;;;;;;;17.28;36.94;100613.53;1696490;83;20546;-60
2022/05/11 08:57:14;;;;;;;;;;;;;;;17.30;36.85;100609.19;1702417;82;20214;-61
2022/05/11 09:00:21;;;;;;;;;;;;;;;17.38;36.77;100608.94;1702001;81;20545;-59
2022/05/11 09:03:31;;;;;;;;;;;;;;;17.54;36.63;100617.70;1703056;82;20417;-59
2022/05/11 09:06:38;;;;;;;;;;;;;;;17.59;36.45;100603.21;1663844;82;20214;-59
2022/05/11 09:09:44;;;;;;;;;;;;;;;17.72;36.39;100594.36;1660867;83;20428;-60
2022/05/11 09:12:51;;;;;;;;;;;;;;;17.93;36.32;100586.30;1668454;82;20460;-59
2022/05/11 09:16:06;;;;;;;;;;;;;;;18.01;36.07;100586.06;1668065;81;20218;-59
2022/05/11 09:19:21;;;;;;;;;;;;;;;17.98;35.97;100580.97;1676932;83;20246;-58
2022/05/11 09:22:29;;;;;;;;;;;;;;;18.14;35.94;100583.77;1668742;83;20234;-58
2022/05/11 09:25:36;;;;;;;;;;;;;;;18.23;35.82;100583.30;1682359;83;20223;-60
2022/05/11 09:28:42;;;;;;;;;;;;;;;18.25;35.70;100583.91;1681615;82;20269;-59
2022/05/11 09:31:47;;;;;;;;;;;;;;;18.19;35.51;100587.56;1689143;82;20562;-59
2022/05/11 09:34:53;;;;;;;;;;;;;;;18.15;35.42;100572.47;1701216;83;20211;-57
2022/05/11 09:38:16;;;;;;;;;;;;;;;18.21;35.33;100594.27;1702238;83;20295;-60
2022/05/11 09:41:29;;;;;;;;;;;;;;;18.28;35.33;100576.56;1699751;82;20219;-57
2022/05/11 09:44:49;;;;;;;;;;;;;;;18.48;35.31;100587.03;1709606;82;20239;-59
2022/05/11 09:48:07;;;;;;;;;;;;;;;18.65;35.19;100581.27;1703313;82;20313;-56
2022/05/11 09:51:29;;;;;;;;;;;;;;;18.68;34.98;100570.28;1670996;83;20223;-56
2022/05/11 09:54:53;;;;;;;;;;;;;;;18.75;34.91;100575.23;1702951;82;20534;-58
2022/05/11 09:58:07;;;;;;;;;;;;;;;18.91;34.80;100566.37;1691162;82;20224;-60
2022/05/11 10:01:19;;;;;;;;;;;;;;;19.11;34.64;100555.41;1694906;82;20255;-60
2022/05/11 10:04:24;;;;;;;;;;;;;;;19.38;34.53;100553.83;1700600;82;20274;-59
2022/05/11 10:07:32;;;;;;;;;;;;;;;19.46;34.39;100550.72;1696541;82;20227;-56
2022/05/11 10:10:56;;;;;;;;;;;;;;;19.41;34.23;100563.09;1697868;82;20235;-55
2022/05/11 10:24:50;;;;;;;;;;;;;;;19.44;34.07;100554.30;1675255;84;20218;-57
2022/05/11 10:28:16;;;;;;;;;;;;;;;19.49;33.94;100555.84;1696175;81;20698;-58
2022/05/11 10:31:34;;;;;;;;;;;;;;;19.64;33.89;100566.89;1698418;82;20227;-57
2022/05/11 10:34:45;;;;;;;;;;;;;;;19.74;33.83;100556.63;1685816;82;20227;-55
2022/05/11 10:38:00;;;;;;;;;;;;;;;19.76;33.80;100554.45;1666254;84;20214;-52
2022/05/11 10:41:30;;;;;;;;;;;;;;;19.89;33.77;100569.59;1699378;82;20220;-55
2022/05/11 10:44:39;;;;;;;;;;;;;;;20.00;33.73;100568.81;1700074;82;20611;-56
2022/05/11 10:48:14;;;;;;;;;;;;;;;20.14;33.65;100557.86;1696656;82;20215;-56
2022/05/11 10:51:46;;;;;;;;;;;;;;;20.35;33.63;100560.16;1687394;83;20223;-54
2022/05/11 10:54:59;;;;;;;;;;;;;;;20.41;33.48;100564.77;1701796;82;20247;-57
2022/05/11 10:58:32;;;;;;;;;;;;;;;20.50;33.50;100557.25;1703642;82;20634;-56
2022/05/11 11:01:44;;;;;;;;;;;;;;;20.64;33.48;100557.92;1692722;82;20561;-55
2022/05/11 11:05:15;;;;;;;;;;;;;;;20.71;33.30;100560.05;1704758;82;20240;-55
2022/05/11 11:08:26;;;;;;;;;;;;;;;20.61;33.21;100550.88;1672711;84;20562;-52
2022/05/11 11:11:34;;;;;;;;;;;;;;;20.63;33.24;100565.41;1678798;82;20223;-55
2022/05/11 11:14:47;;;;;;;;;;;;;;;20.64;33.09;100560.70;1669851;82;20242;-55
2022/05/11 11:17:52;;;;;;;;;;;;;;;20.55;33.06;100545.45;1688293;81;20271;-53
2022/05/11 11:21:01;;;;;;;;;;;;;;;20.54;33.07;100541.80;1696941;82;20262;-54
2022/05/11 11:24:27;;;;;;;;;;;;;;;20.58;33.07;100547.75;1703855;83;20286;-54
2022/05/11 11:27:35;;;;;;;;;;;;;;;20.69;33.07;100534.42;1696641;83;20591;-53
2022/05/11 11:30:41;;;;;;;;;;;;;;;20.77;33.03;100537.69;1698779;82;20266;-54
2022/05/11 11:33:47;;;;;;;;;;;;;;;20.88;33.00;100542.14;1657591;83;20217;-53
2022/05/11 11:36:53;;;;;;;;;;;;;;;20.94;32.92;100530.04;1629399;84;20221;-56
2022/05/11 11:40:03;;;;;;;;;;;;;;;20.94;32.84;100530.90;1631912;84;20223;-55
2022/05/11 11:43:56;;;;;;;;;;;;;;;20.85;32.80;100529.56;1648988;84;20215;-55
2022/05/11 11:46:21;;;;;;;;;;;;;;;20.89;32.74;100518.77;1616003;85;20271;-54
2022/05/11 11:49:30;;;;;;;;;;;;;;;20.89;32.68;100518.77;1610340;85;20224;-56
2022/05/11 11:52:43;;;;;;;;;;;;;;;20.82;32.68;100514.70;1696071;82;20783;-55
2022/05/11 11:55:50;;;;;;;;;;;;;;;20.85;32.66;100522.60;1670896;84;20226;-55
2022/05/11 11:59:08;;;;;;;;;;;;;;;20.81;32.58;100519.98;1674516;84;20616;-56
2022/05/11 12:02:22;;;;;;;;;;;;;;;20.86;32.58;100510.38;1695282;82;20240;-58
2022/05/11 12:05:39;;;;;;;;;;;;;;;20.98;32.59;100512.65;1690197;82;20225;-56
2022/05/11 12:15:40;;;;;;;;;;;;;;;21.15;32.53;100526.19;1685519;82;20512;-55
2022/05/11 12:18:47;;;;;;;;;;;;;;;21.24;32.47;100528.05;1694918;82;20216;-55
2022/05/11 12:22:05;;;;;;;;;;;;;;;21.26;32.47;100518.37;1688243;83;20255;-55
2022/05/11 12:25:36;;;;;;;;;;;;;;;21.36;32.37;100526.13;1699023;82;20199;-55
2022/05/11 12:28:48;;;;;;;;;;;;;;;21.38;32.29;100516.96;1695481;82;20247;-55
2022/05/11 12:31:59;;;;;;;;;;;;;;;21.45;32.17;100515.77;1683394;80;20212;-55
2022/05/11 12:35:26;;;;;;;;;;;;;;;21.47;32.14;100506.60;1681655;82;20291;-54
2022/05/11 12:38:35;;;;;;;;;;;;;;;21.57;32.14;100507.38;1680405;81;20575;-55
2022/05/11 12:41:42;;;;;;;;;;;;;;;21.70;32.11;100507.98;1701666;81;20227;-56
2022/05/11 12:44:47;;;;;;;;;;;;;;;21.77;32.02;100498.13;1676783;84;20824;-54
2022/05/11 12:48:00;;;;;;;;;;;;;;;21.80;31.97;100506.00;1655728;82;20216;-55
2022/05/11 12:51:16;;;;;;;;;;;;;;;21.79;31.91;100502.35;1680917;82;20257;-55
2022/05/11 12:54:28;;;;;;;;;;;;;;;21.84;31.88;100503.00;1695587;82;20274;-54
2022/05/11 12:57:34;;;;;;;;;;;;;;;21.78;31.77;100523.50;1684993;83;20743;-56
2022/05/11 13:00:40;;;;;;;;;;;;;;;21.61;31.72;100502.46;1649940;83;20259;-55
2022/05/11 13:03:46;;;;;;;;;;;;;;;21.52;31.70;100495.58;1690514;82;20852;-54
2022/05/11 13:06:52;;;;;;;;;;;;;;;21.47;31.59;100505.21;1692957;82;20211;-55
2022/05/11 13:10:01;;;;;;;;;;;;;;;21.39;31.60;100495.00;1696626;82;20260;-54
2022/05/11 13:13:09;;;;;;;;;;;;;;;21.44;31.59;100492.30;1698299;82;20240;-56
2022/05/11 13:16:17;;;;;;;;;;;;;;;21.43;31.57;100495.66;1687137;82;20223;-56
2022/05/11 13:19:32;;;;;;;;;;;;;;;21.50;31.58;100487.17;1691925;82;20307;-54
2022/05/11 13:22:38;;;;;;;;;;;;;;;21.52;31.50;100496.97;1670397;82;20207;-55
2022/05/11 13:25:47;;;;;;;;;;;;;;;21.42;31.39;100502.30;1663497;81;20289;-53
2022/05/11 13:29:09;;;;;;;;;;;;;;;21.17;31.29;100505.88;1634904;83;20271;-53
2022/05/11 13:32:16;;;;;;;;;;;;;;;20.87;31.31;100504.27;1645855;83;20467;-55
2022/05/11 13:35:33;;;;;;;;;;;;;;;20.63;31.39;100502.81;1647061;83;20278;-56
2022/05/11 13:38:42;;;;;;;;;;;;;;;20.43;31.41;100509.77;1695833;83;20248;-57
2022/05/11 13:41:49;;;;;;;;;;;;;;;20.25;31.43;100507.89;1684235;81;20219;-53
2022/05/11 13:45:04;;;;;;;;;;;;;;;20.08;31.41;100524.02;1694251;82;20534;-55
2022/05/11 13:48:13;;;;;;;;;;;;;;;19.99;31.45;100517.95;1692300;81;20616;-54
2022/05/11 13:51:33;;;;;;;;;;;;;;;19.95;31.45;100507.52;1690261;81;20588;-55
2022/05/11 13:54:47;;;;;;;;;;;;;;;19.94;31.44;100505.83;1706253;82;20243;-57
2022/05/11 13:57:54;;;;;;;;;;;;;;;19.85;31.37;100514.19;1697072;82;20515;-57
2022/05/11 14:01:31;;;;;;;;;;;;;;;19.78;31.40;100503.68;1699910;82;20215;-58
2022/05/11 14:04:47;;;;;;;;;;;;;;;19.75;31.39;100504.15;1696778;82;20714;-57
2022/05/11 14:07:54;;;;;;;;;;;;;;;19.70;31.34;100503.46;1688067;83;20502;-56
2022/05/11 14:10:59;;;;;;;;;;;;;;;19.66;31.29;100500.85;1687489;82;20255;-58
2022/05/11 14:14:04;;;;;;;;;;;;;;;19.61;31.23;100504.00;1691479;82;20499;-55
2022/05/11 14:17:10;;;;;;;;;;;;;;;19.57;31.17;100497.23;1692141;82;20255;-58
2022/05/11 14:20:15;;;;;;;;;;;;;;;19.48;31.12;100491.65;1689426;83;20625;-56
2022/05/11 14:23:22;;;;;;;;;;;;;;;19.45;31.13;100499.91;1698820;82;20204;-57
2022/05/11 14:26:28;;;;;;;;;;;;;;;19.44;31.04;100487.65;1697723;82;20256;-57
2022/05/11 14:29:33;;;;;;;;;;;;;;;19.45;31.03;100487.95;1703615;82;20507;-56
2022/05/11 14:32:40;;;;;;;;;;;;;;;19.51;31.00;100482.85;1701710;83;20215;-57
2022/05/11 14:35:44;;;;;;;;;;;;;;;19.62;30.99;100482.94;1704987;82;20235;-54
2022/05/11 14:38:50;;;;;;;;;;;;;;;19.78;30.93;100484.23;1700568;81;20227;-55
2022/05/11 14:41:57;;;;;;;;;;;;;;;20.02;30.86;100473.55;1702009;82;20543;-57
2022/05/11 14:45:02;;;;;;;;;;;;;;;20.54;30.79;100463.91;1690765;82;20251;-57
2022/05/11 14:48:13;;;;;;;;;;;;;;;21.50;30.59;100459.32;1694156;82;20216;-57
2022/05/11 14:51:18;;;;;;;;;;;;;;;22.40;30.20;100457.56;1702175;80;20507;-57
2022/05/11 14:54:25;;;;;;;;;;;;;;;23.05;29.91;100455.39;1706178;81;20231;-57
2022/05/11 15:04:31;;;;;;;;;;;;;;;24.80;29.22;100437.77;1679362;83;20209;-57
2022/05/11 15:07:40;;;;;;;;;;;;;;;25.40;29.01;100432.63;1692251;81;20208;-57
2022/05/11 15:10:47;;;;;;;;;;;;;;;25.56;28.87;100434.38;1681608;81;20841;-56
2022/05/11 15:13:52;;;;;;;;;;;;;;;25.61;28.82;100430.20;1685689;81;20639;-57
2022/05/11 15:16:59;;;;;;;;;;;;;;;25.03;28.86;100424.23;1692480;81;20248;-57
2022/05/11 15:20:03;;;;;;;;;;;;;;;24.46;28.96;100424.55;1669887;83;20526;-57
2022/05/11 15:23:12;;;;;;;;;;;;;;;23.98;29.09;100420.94;1658254;84;20605;-58
2022/05/11 15:26:18;;;;;;;;;;;;;;;23.64;29.20;100423.03;1629228;85;20229;-58
2022/05/11 15:29:24;;;;;;;;;;;;;;;23.46;29.20;100420.00;1629343;84;20284;-58
2022/05/11 15:32:35;;;;;;;;;;;;;;;23.65;29.07;100416.32;1637502;84;20222;-56
2022/05/11 15:35:41;;;;;;;;;;;;;;;23.66;28.88;100420.80;1655980;82;20263;-58
2022/05/11 15:38:47;;;;;;;;;;;;;;;23.60;28.83;100417.11;1632328;85;20217;-59
2022/05/11 15:41:54;;;;;;;;;;;;;;;23.52;28.82;100417.56;1623501;85;20540;-60
2022/05/11 15:45:03;;;;;;;;;;;;;;;23.85;28.65;100415.73;1625238;85;20224;-60
2022/05/11 15:48:08;;;;;;;;;;;;;;;24.10;28.47;100414.08;1679030;83;20811;-61
2022/05/11 15:51:14;;;;;;;;;;;;;;;24.29;28.45;100411.78;1703208;82;20228;-61
2022/05/11 15:54:25;;;;;;;;;;;;;;;24.28;28.53;100412.32;1660272;83;20593;-61
2022/05/11 15:57:40;;;;;;;;;;;;;;;24.12;28.64;100405.45;1674512;83;20241;-60
2022/05/11 16:00:46;;;;;;;;;;;;;;;23.95;28.80;100404.10;1677826;82;20270;-61
2022/05/11 16:03:51;;;;;;;;;;;;;;;24.31;28.96;100404.80;1699447;83;20500;-61
2022/05/11 16:07:05;;;;;;;;;;;;;;;25.41;28.47;100412.43;1684259;82;20299;-61
2022/05/11 16:10:18;;;;;;;;;;;;;;;26.20;27.89;100404.07;1681036;81;20217;-61
2022/05/11 16:13:25;;;;;;;;;;;;;;;26.28;27.77;100404.93;1678466;83;20218;-61
2022/05/11 16:16:31;;;;;;;;;;;;;;;26.50;27.77;100407.51;1680360;83;20269;-60
2022/05/11 16:19:51;;;;;;;;;;;;;;;26.19;27.68;100410.81;1677414;84;20277;-60
2022/05/11 16:22:58;;;;;;;;;;;;;;;25.56;27.67;100411.94;1681862;83;20214;-60
2022/05/11 16:26:03;;;;;;;;;;;;;;;24.71;27.97;100409.95;1676904;85;20680;-60
2022/05/11 16:29:08;;;;;;;;;;;;;;;24.04;28.39;100409.55;1680652;83;20224;-60
2022/05/11 16:32:13;;;;;;;;;;;;;;;23.53;28.58;100415.62;1664887;82;20254;-60
2022/05/11 16:35:20;;;;;;;;;;;;;;;23.02;28.74;100415.95;1677024;83;20265;-60
2022/05/11 16:38:25;;;;;;;;;;;;;;;22.61;28.90;100429.78;1674975;82;20218;-58
2022/05/11 16:41:28;;;;;;;;;;;;;;;22.18;28.96;100426.19;1680034;82;20223;-60
2022/05/11 16:44:36;;;;;;;;;;;;;;;21.77;29.05;100421.48;1674493;83;20230;-60
2022/05/11 16:47:42;;;;;;;;;;;;;;;21.40;29.10;100427.91;1673615;83;20272;-60
2022/05/11 16:50:47;;;;;;;;;;;;;;;20.99;29.17;100425.28;1674906;83;20233;-61
2022/05/11 16:53:53;;;;;;;;;;;;;;;20.65;29.21;100426.06;1672302;83;20616;-60
2022/05/11 16:56:58;;;;;;;;;;;;;;;20.36;29.25;100429.78;1700097;83;20694;-61